Russell, North Dakota
Current Conditions -  °F | °C
As of 4:13 AM on Wednesday 26 Nov 2014 (Local Time) from KMIB Reporting Station
Light Snow Light Snow  
Wind Chill: -20°   Ceiling: 200
Heat Index: -15°   Visibility: 0.75mi
Dew Point: -16°   Wind: 5mph
Humidity: 92%   Direction: 320°NW
Pressure: 30.28"   Gusts: NA
Location:  48.6879°N, 101.011°W
Report Text: KMIB 261013Z AUTO 32004KT 3/4SM R11/2800FT -SN BR BKN002 OVC014 M15/M16 A3028 RMK AO2 VIS 3/4V5 BKN V OVC
Loading
Personal Weather Stations






























Interactive Weather Map New forecast layout! Learn more

10-Day Weather Forecast

Advertisements
Track Severe Weather on mobile